Time;durP1;ratioP1;P1;durP2;ratioP2;P2;SDS_P1;SDS_P2;PMS_P1;PMS_P2;Temp;Humidity;BMP_temperature;BMP_pressure;BME280_temperature;BME280_humidity;BME280_pressure;Samples;Min_cycle;Max_cycle;Signal;HPM_P1;HPM_P2
2024/04/09 00:02:07;;;;;;;7.22;3.10;;;;;;;17.39;100.00;100235.91;5454663;27;20026;-79
2024/04/09 00:04:39;;;;;;;4.45;2.65;;;;;;;17.31;100.00;100260.66;5462203;27;20011;-79
2024/04/09 00:07:11;;;;;;;8.57;3.00;;;;;;;17.33;100.00;100289.59;5459708;27;20013;-79
2024/04/09 00:09:43;;;;;;;4.57;2.60;;;;;;;17.31;100.00;100289.78;5451445;27;20007;-77
2024/04/09 00:12:21;;;;;;;4.57;2.58;;;;;;;17.20;100.00;100291.09;5451291;27;20010;-79
2024/04/09 00:14:55;;;;;;;6.05;2.45;;;;;;;17.22;100.00;100298.84;5449932;27;20073;-80
2024/04/09 00:17:34;;;;;;;4.43;2.25;;;;;;;17.17;100.00;100304.72;5464118;27;20026;-78
2024/04/09 00:20:09;;;;;;;6.45;2.00;;;;;;;17.14;100.00;100289.19;5451402;27;21430;-78
2024/04/09 00:22:41;;;;;;;6.28;2.13;;;;;;;17.11;100.00;100280.81;5449696;27;20038;-77
2024/04/09 00:25:14;;;;;;;5.60;2.00;;;;;;;17.09;100.00;100273.06;5462091;27;20057;-79
2024/04/09 00:27:47;;;;;;;6.05;2.05;;;;;;;17.10;100.00;100268.59;5459560;27;20463;-79
2024/04/09 00:30:20;;;;;;;5.70;2.17;;;;;;;17.07;100.00;100255.72;5453426;27;20823;-77
2024/04/09 00:32:53;;;;;;;4.32;2.05;;;;;;;17.06;100.00;100269.97;5455324;27;20037;-79
2024/04/09 00:35:26;;;;;;;3.17;2.10;;;;;;;17.11;100.00;100271.03;5457310;27;20007;-79
2024/04/09 00:37:59;;;;;;;;;;;;;;;17.93;100.00;100267.16;5454714;27;20026;-77
2024/04/09 00:40:31;;;;;;;3.08;1.67;;;;;;;17.17;100.00;100261.53;5452699;27;19935;-77
2024/04/09 00:43:04;;;;;;;5.35;2.30;;;;;;;17.06;100.00;100243.50;5453435;27;20373;-80
2024/04/09 00:45:36;;;;;;;6.07;1.95;;;;;;;17.08;100.00;100222.94;5452942;27;20003;-79
2024/04/09 00:48:08;;;;;;;5.20;2.70;;;;;;;17.11;100.00;100204.03;5457673;27;20458;-77
2024/04/09 00:50:41;;;;;;;3.92;2.00;;;;;;;17.13;100.00;100194.09;5455437;27;20022;-77
2024/04/09 00:53:16;;;;;;;;;;;;;;;17.95;100.00;100193.56;5449586;27;20477;-78
2024/04/09 00:55:49;;;;;;;3.70;2.13;;;;;;;17.05;100.00;100183.63;5456302;27;20228;-79
2024/04/09 00:58:21;;;;;;;4.18;1.88;;;;;;;17.02;100.00;100193.59;5463490;27;20521;-78
2024/04/09 01:00:53;;;;;;;4.68;2.03;;;;;;;17.02;100.00;100198.06;5455537;27;20026;-79
2024/04/09 01:03:26;;;;;;;4.05;1.90;;;;;;;16.96;100.00;100228.72;5460739;27;20487;-79
2024/04/09 01:05:58;;;;;;;6.18;2.25;;;;;;;17.00;100.00;100239.75;5462019;27;20003;-78
2024/04/09 01:08:30;;;;;;;5.97;2.20;;;;;;;16.96;100.00;100231.38;5458136;27;20018;-77
2024/04/09 01:11:01;;;;;;;5.20;1.80;;;;;;;16.94;100.00;100240.53;5460915;27;20027;-78
2024/04/09 01:13:35;;;;;;;4.63;1.95;;;;;;;16.93;100.00;100252.94;5461447;27;20022;-79
2024/04/09 01:16:07;;;;;;;3.60;1.67;;;;;;;16.83;100.00;100252.41;5451005;27;20016;-79
2024/04/09 01:18:39;;;;;;;5.35;1.92;;;;;;;16.85;100.00;100263.59;5458759;27;20451;-78
2024/04/09 01:21:11;;;;;;;4.40;1.70;;;;;;;16.79;100.00;100272.28;5457674;27;20058;-77
2024/04/09 01:23:43;;;;;;;6.68;1.88;;;;;;;16.73;100.00;100279.13;5466641;27;20022;-78
2024/04/09 01:26:17;;;;;;;4.55;2.05;;;;;;;16.75;100.00;100289.53;5458517;27;20002;-80
2024/04/09 01:28:49;;;;;;;4.05;1.55;;;;;;;16.68;100.00;100276.19;5458323;27;20021;-79
2024/04/09 01:31:23;;;;;;;4.80;1.98;;;;;;;16.67;100.00;100279.84;5458257;27;20019;-78
2024/04/09 01:33:54;;;;;;;3.65;1.50;;;;;;;16.67;100.00;100273.75;5465340;27;20025;-79
2024/04/09 01:36:28;;;;;;;3.80;1.67;;;;;;;16.69;100.00;100251.38;5461452;27;20011;-77
2024/04/09 01:39:00;;;;;;;4.90;2.00;;;;;;;16.66;100.00;100241.16;5464230;27;21786;-78
2024/04/09 01:41:32;;;;;;;6.25;1.88;;;;;;;16.62;100.00;100213.44;5457951;27;20021;-79
2024/04/09 01:44:04;;;;;;;3.42;1.83;;;;;;;16.67;100.00;100182.00;5466417;27;20046;-79
2024/04/09 01:46:37;;;;;;;4.45;1.52;;;;;;;16.63;100.00;100167.50;5457569;27;20023;-78
2024/04/09 01:49:08;;;;;;;;;;;;;;;17.42;100.00;100169.31;5467163;27;20066;-79
2024/04/09 01:51:40;;;;;;;3.10;1.40;;;;;;;16.70;100.00;100207.22;5461193;27;19951;-78
2024/04/09 01:54:12;;;;;;;5.93;1.98;;;;;;;16.67;100.00;100229.59;5465650;27;20546;-80
2024/04/09 01:56:45;;;;;;;5.68;1.52;;;;;;;16.60;100.00;100249.84;5460801;27;20024;-77
2024/04/09 01:59:17;;;;;;;4.72;1.85;;;;;;;16.63;100.00;100260.06;5466937;27;20022;-79
2024/04/09 02:01:49;;;;;;;4.90;1.75;;;;;;;16.56;100.00;100267.09;5452584;27;20066;-80
2024/04/09 02:04:20;;;;;;;4.55;1.42;;;;;;;16.52;100.00;100268.47;5451492;27;20018;-79
2024/04/09 02:06:52;;;;;;;5.07;1.80;;;;;;;16.51;100.00;100288.75;5461024;27;20373;-80
2024/04/09 02:09:25;;;;;;;4.53;1.63;;;;;;;16.46;100.00;100304.38;5452937;27;20021;-78
2024/04/09 02:11:57;;;;;;;4.00;1.70;;;;;;;16.47;100.00;100326.34;5455311;27;20016;-79
2024/04/09 02:14:29;;;;;;;3.10;1.30;;;;;;;16.44;100.00;100342.56;5459649;27;20025;-77
2024/04/09 02:17:01;;;;;;;5.10;1.40;;;;;;;16.36;100.00;100347.94;5458174;27;20239;-79
2024/04/09 02:19:33;;;;;;;4.47;1.60;;;;;;;16.35;100.00;100349.75;5462973;27;20020;-79
2024/04/09 02:22:05;;;;;;;6.38;1.67;;;;;;;16.29;100.00;100343.38;5455651;27;20014;-78
2024/04/09 02:24:37;;;;;;;4.47;1.38;;;;;;;16.23;100.00;100322.94;5466994;27;20583;-79
2024/04/09 02:27:09;;;;;;;4.18;1.27;;;;;;;16.28;100.00;100323.22;5459182;27;20484;-78
2024/04/09 02:29:41;;;;;;;2.45;1.20;;;;;;;16.22;100.00;100328.41;5455882;27;20007;-80
2024/04/09 02:32:13;;;;;;;4.50;1.38;;;;;;;16.22;100.00;100331.06;5459671;27;20018;-78
2024/04/09 02:34:45;;;;;;;3.38;1.50;;;;;;;16.22;100.00;100334.53;5457361;27;20025;-79
2024/04/09 02:37:17;;;;;;;3.78;1.50;;;;;;;16.20;100.00;100333.88;5463963;27;20006;-80
2024/04/09 02:39:50;;;;;;;5.05;1.80;;;;;;;16.23;100.00;100335.34;5460847;27;20021;-79
2024/04/09 02:42:23;;;;;;;4.57;1.60;;;;;;;16.17;100.00;100344.78;5463354;27;20043;-80
2024/04/09 02:44:54;;;;;;;3.13;1.77;;;;;;;16.18;100.00;100357.03;5458369;27;20007;-80
2024/04/09 02:47:26;;;;;;;3.45;1.42;;;;;;;16.11;100.00;100364.03;5465830;27;20055;-79
2024/04/09 02:49:58;;;;;;;3.20;1.65;;;;;;;16.11;100.00;100357.91;5459503;27;20019;-79
2024/04/09 02:52:30;;;;;;;2.88;1.58;;;;;;;16.12;100.00;100355.09;5464449;27;20051;-79
2024/04/09 02:55:03;;;;;;;4.47;2.17;;;;;;;16.16;100.00;100352.91;5460855;27;20031;-79
2024/04/09 02:57:35;;;;;;;5.28;2.30;;;;;;;16.11;100.00;100344.69;5460035;27;20042;-78
2024/04/09 03:00:15;;;;;;;4.70;2.80;;;;;;;16.05;100.00;100322.44;5464490;27;20093;-79
2024/04/09 03:02:53;;;;;;;4.35;2.75;;;;;;;16.15;100.00;100317.72;5458873;27;21066;-77
2024/04/09 03:05:29;;;;;;;4.93;2.90;;;;;;;16.20;100.00;100338.34;5456603;27;20054;-80
2024/04/09 03:08:01;;;;;;;5.47;2.80;;;;;;;16.08;100.00;100343.22;5456224;27;20058;-79
2024/04/09 03:10:33;;;;;;;3.75;2.75;;;;;;;16.09;100.00;100338.75;5458538;27;20047;-78
2024/04/09 03:13:05;;;;;;;4.38;3.13;;;;;;;16.09;100.00;100352.78;5457693;27;20035;-79
2024/04/09 03:15:37;;;;;;;4.28;3.45;;;;;;;16.04;100.00;100341.94;5462504;27;20003;-79
2024/04/09 03:18:09;;;;;;;3.67;3.20;;;;;;;16.03;100.00;100338.47;5456256;27;20007;-78
2024/04/09 03:20:41;;;;;;;5.28;3.15;;;;;;;15.98;100.00;100338.19;5459773;27;20019;-78
2024/04/09 03:23:13;;;;;;;5.45;4.03;;;;;;;16.04;100.00;100328.72;5456173;27;20784;-79
2024/04/09 03:25:47;;;;;;;7.00;3.10;;;;;;;16.05;100.00;100343.56;5459793;27;20011;-80
2024/04/09 03:28:19;;;;;;;3.60;2.90;;;;;;;15.93;100.00;100334.44;5456876;27;20002;-79
2024/04/09 03:30:57;;;;;;;3.58;3.28;;;;;;;16.07;100.00;100351.34;5451902;27;20479;-79
2024/04/09 03:33:30;;;;;;;5.53;3.60;;;;;;;15.86;100.00;100342.25;5461097;27;20450;-77
2024/04/09 03:36:04;;;;;;;4.30;2.60;;;;;;;15.88;100.00;100342.09;5462811;27;20074;-79
2024/04/09 03:38:37;;;;;;;4.05;2.80;;;;;;;15.80;100.00;100351.72;5450778;27;20013;-77
2024/04/09 03:41:09;;;;;;;4.22;2.70;;;;;;;15.77;100.00;100383.75;5450936;27;20017;-79
2024/04/09 03:43:40;;;;;;;3.58;2.55;;;;;;;15.68;100.00;100400.66;5456536;27;20003;-79
2024/04/09 03:46:14;;;;;;;4.07;2.80;;;;;;;15.66;100.00;100402.63;5461229;27;20458;-77
2024/04/09 03:48:46;;;;;;;3.72;2.42;;;;;;;15.63;100.00;100415.31;5459721;27;20042;-77
2024/04/09 03:51:18;;;;;;;4.32;2.70;;;;;;;15.63;100.00;100423.25;5457094;27;20039;-79
2024/04/09 03:53:50;;;;;;;3.60;1.83;;;;;;;15.58;100.00;100442.25;5462696;27;20032;-78
2024/04/09 03:56:22;;;;;;;3.80;1.92;;;;;;;15.57;100.00;100438.81;5458626;27;20377;-77
2024/04/09 03:58:54;;;;;;;2.63;1.50;;;;;;;15.48;100.00;100437.19;5453999;27;20003;-79
2024/04/09 04:01:26;;;;;;;4.38;1.88;;;;;;;15.53;100.00;100444.56;5466569;27;19998;-79
2024/04/09 04:03:58;;;;;;;2.60;1.75;;;;;;;15.50;100.00;100458.16;5463972;27;20064;-80
2024/04/09 04:06:30;;;;;;;3.17;1.42;;;;;;;15.49;100.00;100469.69;5458807;27;20022;-79
2024/04/09 04:09:03;;;;;;;3.22;1.70;;;;;;;15.47;100.00;100474.31;5456162;27;20010;-76
2024/04/09 04:11:36;;;;;;;1.80;1.20;;;;;;;15.42;100.00;100485.41;5448024;27;20092;-79
2024/04/09 04:14:08;;;;;;;2.63;1.45;;;;;;;15.41;100.00;100490.81;5456894;27;19999;-78
2024/04/09 04:16:40;;;;;;;2.03;1.10;;;;;;;15.41;100.00;100489.00;5463228;27;20013;-77
2024/04/09 04:19:13;;;;;;;3.95;1.30;;;;;;;15.39;100.00;100483.09;5466367;27;20452;-77
2024/04/09 04:21:45;;;;;;;3.58;1.13;;;;;;;15.39;100.00;100490.19;5460224;27;20013;-78
2024/04/09 04:24:17;;;;;;;4.28;1.60;;;;;;;15.37;100.00;100494.81;5461215;27;20448;-79
2024/04/09 04:26:49;;;;;;;3.67;1.38;;;;;;;15.34;100.00;100488.03;5459496;27;20006;-77
2024/04/09 04:29:21;;;;;;;3.47;1.25;;;;;;;15.36;100.00;100491.34;5459082;27;19999;-79
2024/04/09 04:31:53;;;;;;;3.58;1.52;;;;;;;15.35;100.00;100489.72;5464309;27;20014;-78
2024/04/09 04:34:25;;;;;;;3.42;1.40;;;;;;;15.33;100.00;100492.50;5459989;27;20042;-79
2024/04/09 04:36:56;;;;;;;4.47;1.70;;;;;;;15.31;100.00;100489.22;5463221;27;20007;-77
2024/04/09 04:39:28;;;;;;;3.75;1.23;;;;;;;15.28;100.00;100481.63;5458085;27;20010;-77
2024/04/09 04:42:01;;;;;;;4.65;1.50;;;;;;;15.40;100.00;100495.28;5461309;27;20015;-79
2024/04/09 04:44:33;;;;;;;3.78;1.52;;;;;;;15.41;100.00;100498.75;5463463;27;20026;-77
2024/04/09 04:47:05;;;;;;;3.33;1.70;;;;;;;15.36;100.00;100501.91;5465820;27;20014;-78
2024/04/09 04:49:37;;;;;;;3.25;1.60;;;;;;;15.32;100.00;100504.06;5469469;27;20034;-77
2024/04/09 04:52:09;;;;;;;4.38;2.25;;;;;;;15.29;100.00;100517.59;5460476;27;20533;-79
2024/04/09 04:54:42;;;;;;;5.30;2.63;;;;;;;15.36;100.00;100517.75;5469203;27;20034;-79
2024/04/09 04:57:14;;;;;;;3.17;1.92;;;;;;;15.38;100.00;100515.78;5463588;27;20003;-77
2024/04/09 04:59:46;;;;;;;3.17;1.98;;;;;;;15.35;100.00;100516.09;5461976;27;20070;-79
2024/04/09 05:02:18;;;;;;;5.28;2.30;;;;;;;15.33;100.00;100523.34;5464086;27;20025;-79
2024/04/09 05:04:53;;;;;;;5.25;2.13;;;;;;;15.30;100.00;100524.53;5464119;27;20049;-79
2024/04/09 05:07:25;;;;;;;3.33;1.80;;;;;;;15.30;100.00;100524.53;5468243;27;20054;-79
2024/04/09 05:09:58;;;;;;;3.80;1.92;;;;;;;15.29;100.00;100525.50;5464742;27;20013;-78
2024/04/09 05:12:30;;;;;;;2.80;1.80;;;;;;;15.26;100.00;100525.84;5468244;27;20042;-77
2024/04/09 05:15:02;;;;;;;3.65;1.80;;;;;;;15.23;100.00;100535.94;5462642;27;20066;-79
2024/04/09 05:17:34;;;;;;;3.17;1.70;;;;;;;15.18;100.00;100544.31;5462096;27;20010;-79
2024/04/09 05:20:10;;;;;;;2.45;1.30;;;;;;;15.19;100.00;100547.78;5459781;27;20022;-79
2024/04/09 05:22:47;;;;;;;3.85;1.85;;;;;;;15.26;100.00;100546.94;5455133;27;20109;-77
2024/04/09 05:25:18;;;;;;;3.45;1.35;;;;;;;15.13;100.00;100554.56;5450826;27;20039;-77
2024/04/09 05:27:50;;;;;;;3.13;1.40;;;;;;;15.15;100.00;100551.75;5460329;27;20770;-79
2024/04/09 05:30:22;;;;;;;2.47;1.30;;;;;;;15.04;100.00;100572.22;5462796;27;20006;-79
2024/04/09 05:32:54;;;;;;;2.78;1.17;;;;;;;14.96;100.00;100566.94;5469219;27;20018;-77
2024/04/09 05:35:26;;;;;;;3.88;1.30;;;;;;;14.94;100.00;100565.47;5472124;27;20614;-78
2024/04/09 05:37:58;;;;;;;2.95;0.70;;;;;;;14.87;100.00;100567.94;5452764;27;20078;-77
2024/04/09 05:40:30;;;;;;;4.85;1.00;;;;;;;14.64;100.00;100565.13;5454833;27;20011;-78
2024/04/09 05:43:03;;;;;;;3.28;0.93;;;;;;;14.55;100.00;100568.75;5455477;27;20025;-77
2024/04/09 05:45:35;;;;;;;2.50;0.70;;;;;;;14.51;100.00;100565.59;5457283;27;20370;-78
2024/04/09 05:48:07;;;;;;;3.80;1.15;;;;;;;14.38;100.00;100593.38;5449672;27;20094;-78
2024/04/09 05:50:38;;;;;;;3.00;0.90;;;;;;;14.31;100.00;100591.38;5460822;27;20093;-79
2024/04/09 05:53:11;;;;;;;3.33;0.98;;;;;;;14.18;100.00;100598.91;5470751;27;20010;-78
2024/04/09 05:55:53;;;;;;;4.88;1.25;;;;;;;14.39;100.00;100592.38;5458450;27;20505;-78
2024/04/09 05:58:25;;;;;;;4.82;1.42;;;;;;;14.22;100.00;100594.16;5451597;27;20054;-78
2024/04/09 06:00:58;;;;;;;4.03;1.05;;;;;;;14.10;100.00;100581.28;5458297;27;20000;-77
2024/04/09 06:03:30;;;;;;;7.10;1.95;;;;;;;14.01;100.00;100584.03;5463437;27;20039;-78
2024/04/09 06:06:02;;;;;;;2.80;0.75;;;;;;;13.99;100.00;100586.84;5452794;27;20011;-79
2024/04/09 06:08:34;;;;;;;4.28;1.05;;;;;;;13.93;100.00;100581.38;5457534;27;20031;-78
2024/04/09 06:11:06;;;;;;;3.25;1.20;;;;;;;13.98;100.00;100586.97;5447688;27;20007;-78
2024/04/09 06:13:38;;;;;;;4.68;1.20;;;;;;;14.10;100.00;100585.72;5448820;27;20035;-79
2024/04/09 06:16:10;;;;;;;4.13;1.00;;;;;;;14.03;100.00;100587.34;5457418;27;20017;-79
2024/04/09 06:18:42;;;;;;;3.15;0.93;;;;;;;14.05;100.00;100588.00;5449982;27;20021;-79
2024/04/09 06:21:14;;;;;;;3.50;0.90;;;;;;;14.08;100.00;100596.41;5459178;27;20034;-79
2024/04/09 06:23:46;;;;;;;3.20;1.05;;;;;;;14.03;100.00;100584.72;5452657;27;20476;-79
2024/04/09 06:26:20;;;;;;;4.35;1.10;;;;;;;14.03;100.00;100606.59;5463999;27;20843;-78
2024/04/09 06:28:52;;;;;;;4.82;0.98;;;;;;;14.01;100.00;100608.56;5461711;27;20469;-77
2024/04/09 06:31:23;;;;;;;4.40;0.98;;;;;;;14.00;100.00;100614.81;5462080;27;20021;-79
2024/04/09 06:33:55;;;;;;;3.90;1.42;;;;;;;14.03;100.00;100611.88;5458672;27;20069;-77
2024/04/09 06:36:28;;;;;;;4.00;0.98;;;;;;;14.05;100.00;100614.34;5454383;27;20931;-77
2024/04/09 06:38:59;;;;;;;3.88;1.02;;;;;;;13.93;100.00;100618.25;5456026;27;20033;-78
2024/04/09 06:41:31;;;;;;;4.05;0.95;;;;;;;13.97;100.00;100619.56;5437877;27;20022;-78
2024/04/09 06:44:03;;;;;;;5.40;1.35;;;;;;;13.92;100.00;100608.69;5458116;27;20011;-79
2024/04/09 06:46:35;;;;;;;5.65;1.10;;;;;;;13.99;100.00;100615.81;5458431;27;20007;-79
2024/04/09 06:49:07;;;;;;;4.57;1.27;;;;;;;14.06;100.00;100630.00;5463294;27;20026;-79
2024/04/09 06:51:39;;;;;;;4.20;1.35;;;;;;;14.02;100.00;100641.84;5454983;27;20013;-79
2024/04/09 06:54:11;;;;;;;4.65;1.40;;;;;;;13.98;100.00;100639.66;5453710;27;20007;-79
2024/04/09 06:56:43;;;;;;;5.17;1.17;;;;;;;14.07;100.00;100654.53;5459402;27;20035;-79
2024/04/09 06:59:16;;;;;;;3.92;0.85;;;;;;;13.97;100.00;100651.19;5457992;27;20259;-78
2024/04/09 07:01:48;;;;;;;4.73;1.07;;;;;;;14.03;100.00;100656.66;5456871;27;20031;-77
2024/04/09 07:04:20;;;;;;;8.18;1.40;;;;;;;13.98;100.00;100669.47;5466944;27;20637;-79
2024/04/09 07:06:52;;;;;;;5.43;1.13;;;;;;;13.99;100.00;100678.19;5462510;27;20022;-77
2024/04/09 07:09:24;;;;;;;4.78;1.08;;;;;;;14.00;100.00;100678.03;5464084;27;20035;-78
2024/04/09 07:11:57;;;;;;;4.50;1.58;;;;;;;14.07;100.00;100675.59;5456893;27;20050;-78
2024/04/09 07:14:29;;;;;;;4.23;0.90;;;;;;;14.04;100.00;100666.19;5463667;27;20035;-77
2024/04/09 07:17:02;;;;;;;3.05;1.00;;;;;;;14.06;100.00;100666.06;5455169;27;20792;-78
2024/04/09 07:19:33;;;;;;;6.38;1.15;;;;;;;14.11;100.00;100685.66;5452833;27;20002;-79
2024/04/09 07:22:05;;;;;;;4.35;1.60;;;;;;;14.15;100.00;100677.44;5461950;27;21476;-78
2024/04/09 07:24:42;;;;;;;4.05;1.10;;;;;;;14.10;100.00;100680.56;5456005;27;20027;-77
2024/04/09 07:27:14;;;;;;;3.88;1.23;;;;;;;14.03;94.66;100684.81;5455146;27;20138;-78
2024/04/09 07:29:46;;;;;;;3.15;0.90;;;;;;;14.01;88.71;100681.47;5451232;27;20029;-77
2024/04/09 07:32:18;;;;;;;4.38;1.10;;;;;;;14.04;84.19;100686.44;5458200;27;20078;-77
2024/04/09 07:34:51;;;;;;;4.43;1.15;;;;;;;14.06;85.38;100677.41;5460666;27;20030;-77
2024/04/09 07:37:23;;;;;;;4.97;1.13;;;;;;;14.12;83.72;100671.50;5453159;27;20025;-79
2024/04/09 07:39:55;;;;;;;3.90;1.23;;;;;;;14.18;81.06;100677.97;5445443;27;20007;-76
2024/04/09 07:42:27;;;;;;;4.93;1.40;;;;;;;14.14;76.58;100679.25;5447945;27;20029;-78
2024/04/09 07:44:59;;;;;;;5.35;1.25;;;;;;;14.07;72.57;100680.88;5455727;27;20003;-77
2024/04/09 07:47:31;;;;;;;4.45;1.00;;;;;;;14.04;70.27;100687.28;5447421;27;20021;-79
2024/04/09 07:50:09;;;;;;;4.50;1.60;;;;;;;14.09;73.39;100681.53;5469106;27;20025;-77
2024/04/09 07:52:41;;;;;;;6.05;1.58;;;;;;;14.05;71.39;100674.91;5451107;27;20007;-79
2024/04/09 07:55:13;;;;;;;6.73;1.43;;;;;;;14.08;68.14;100682.50;5460739;27;20035;-77
2024/04/09 07:57:45;;;;;;;5.70;1.25;;;;;;;13.96;67.46;100678.50;5461301;27;20044;-77
2024/04/09 08:00:17;;;;;;;4.18;1.15;;;;;;;14.09;69.95;100684.16;5460826;27;20124;-79
2024/04/09 08:02:49;;;;;;;6.10;1.38;;;;;;;14.08;70.22;100690.41;5463885;27;20035;-78
2024/04/09 08:05:23;;;;;;;6.22;1.15;;;;;;;14.02;69.75;100706.88;5456498;27;20014;-77
2024/04/09 08:07:55;;;;;;;3.72;1.13;;;;;;;13.81;66.29;100692.22;5465971;27;20039;-79
2024/04/09 08:10:27;;;;;;;5.20;1.33;;;;;;;13.87;67.65;100703.97;5453870;27;20007;-79
2024/04/09 08:13:00;;;;;;;5.78;1.02;;;;;;;13.85;69.62;100706.75;5454267;27;20021;-78
2024/04/09 08:15:32;;;;;;;4.43;1.00;;;;;;;13.91;67.59;100721.13;5453340;27;20022;-78
2024/04/09 08:18:04;;;;;;;4.85;1.13;;;;;;;13.87;66.01;100725.03;5456448;27;20003;-79
2024/04/09 08:20:36;;;;;;;5.30;1.13;;;;;;;13.94;65.04;100741.88;5457847;27;20007;-77
2024/04/09 08:23:08;;;;;;;4.75;1.60;;;;;;;13.87;64.66;100746.09;5459852;27;20018;-78
2024/04/09 08:25:40;;;;;;;3.55;0.90;;;;;;;13.84;62.60;100763.03;5448255;27;20007;-78
2024/04/09 08:28:12;;;;;;;6.18;1.65;;;;;;;13.72;63.09;100771.34;5461672;27;20017;-77
2024/04/09 08:30:45;;;;;;;5.53;1.10;;;;;;;13.67;60.89;100787.56;5460610;27;20803;-77
2024/04/09 08:33:17;;;;;;;3.53;1.00;;;;;;;13.77;62.85;100784.88;5461874;27;20117;-79
2024/04/09 08:35:49;;;;;;;3.40;1.00;;;;;;;13.73;61.88;100792.25;5471334;27;20038;-78
2024/04/09 08:38:22;;;;;;;4.23;0.90;;;;;;;13.86;62.37;100797.09;5457316;27;20389;-79
2024/04/09 08:40:55;;;;;;;3.55;0.95;;;;;;;14.02;64.00;100784.06;5465876;27;20384;-78
2024/04/09 08:43:27;;;;;;;3.38;1.10;;;;;;;14.12;64.49;100792.69;5464648;27;20051;-79
2024/04/09 08:45:59;;;;;;;4.25;1.25;;;;;;;14.35;65.84;100798.28;5456118;27;20042;-77
2024/04/09 08:48:32;;;;;;;5.40;1.20;;;;;;;14.41;62.40;100802.09;5462988;27;20038;-79
2024/04/09 08:51:05;;;;;;;3.38;1.05;;;;;;;14.46;62.10;100806.91;5459618;27;20391;-79
2024/04/09 08:53:37;;;;;;;4.23;1.13;;;;;;;14.46;62.07;100814.81;5467360;27;20382;-78
2024/04/09 08:56:10;;;;;;;4.25;1.27;;;;;;;14.70;63.18;100811.50;5463468;27;20275;-77
2024/04/09 08:58:43;;;;;;;3.55;1.20;;;;;;;14.76;58.93;100816.16;5452181;27;20043;-79
2024/04/09 09:01:27;;;;;;;3.92;1.13;;;;;;;14.75;58.23;100810.06;5462735;27;20042;-78
2024/04/09 09:03:59;;;;;;;7.43;1.20;;;;;;;14.48;58.76;100797.88;5452964;27;20057;-78
2024/04/09 09:06:44;;;;;;;3.65;0.93;;;;;;;14.60;58.90;100806.34;5457130;27;20631;-79
2024/04/09 09:09:26;;;;;;;3.38;1.38;;;;;;;14.75;59.90;100811.88;5470080;27;20468;-77
2024/04/09 09:12:03;;;;;;;3.80;0.98;;;;;;;14.78;58.30;100806.28;5460228;27;20030;-79
2024/04/09 09:14:35;;;;;;;3.47;1.02;;;;;;;15.11;59.67;100809.03;5463725;27;20026;-75
2024/04/09 09:17:09;;;;;;;4.47;0.95;;;;;;;15.41;58.57;100821.63;5464300;27;20038;-78
2024/04/09 09:19:41;;;;;;;5.47;1.20;;;;;;;15.59;57.73;100816.22;5466502;27;20019;-77
2024/04/09 09:22:12;;;;;;;4.03;1.23;;;;;;;15.62;55.34;100810.63;5467665;27;20055;-77
2024/04/09 09:24:44;;;;;;;3.78;1.05;;;;;;;15.80;57.01;100813.16;5473911;27;20017;-77
2024/04/09 09:27:17;;;;;;;5.13;1.20;;;;;;;15.88;53.76;100807.03;5456669;27;20009;-77
2024/04/09 09:29:56;;;;;;;4.57;1.00;;;;;;;16.04;52.66;100813.13;5452441;27;20050;-76
2024/04/09 09:32:28;;;;;;;4.45;0.90;;;;;;;15.98;53.56;100803.22;5458312;27;20030;-77
2024/04/09 09:35:02;;;;;;;4.38;0.70;;;;;;;16.00;52.44;100827.66;5479139;27;20018;-76
2024/04/09 09:37:34;;;;;;;2.75;0.70;;;;;;;15.93;52.29;100831.97;5454670;27;20454;-77
2024/04/09 09:40:09;;;;;;;4.53;1.10;;;;;;;15.72;51.26;100829.81;5450247;27;20014;-78
2024/04/09 09:42:44;;;;;;;6.60;1.35;;;;;;;15.59;51.94;100840.00;5461476;27;20059;-78
2024/04/09 09:45:16;;;;;;;3.15;1.10;;;;;;;15.36;53.36;100825.75;5460199;27;21110;-77
2024/04/09 09:47:49;;;;;;;4.38;1.17;;;;;;;15.27;52.02;100820.47;5459873;27;20032;-78
2024/04/09 09:50:22;;;;;;;4.55;1.10;;;;;;;15.25;52.47;100816.31;5459533;27;20030;-78
2024/04/09 09:52:55;;;;;;;4.82;0.90;;;;;;;15.32;52.47;100823.44;5464628;27;20039;-77
2024/04/09 09:55:29;;;;;;;2.80;0.88;;;;;;;15.39;52.29;100820.97;5462131;27;20337;-77
2024/04/09 09:58:03;;;;;;;4.22;1.10;;;;;;;15.26;52.09;100807.41;5460275;27;20047;-78
2024/04/09 10:00:37;;;;;;;5.53;1.17;;;;;;;15.46;52.12;100818.53;5453034;27;20013;-78
2024/04/09 10:03:09;;;;;;;2.90;1.65;;;;;;;15.62;52.04;100838.84;5465590;27;20489;-75
2024/04/09 10:05:41;;;;;;;3.13;0.82;;;;;;;15.44;51.07;100834.50;5458195;27;20501;-78
2024/04/09 10:08:34;;;;;;;2.85;1.02;;;;;;;15.67;52.41;100832.09;5438962;27;20011;-78
2024/04/09 10:11:06;;;;;;;3.35;0.90;;;;;;;15.95;51.69;100814.13;5470066;27;20042;-77
2024/04/09 10:13:48;;;;;;;3.47;0.88;;;;;;;16.44;52.02;100827.28;5465880;27;20011;-78
2024/04/09 10:16:22;;;;;;;4.38;0.90;;;;;;;16.21;48.78;100835.09;5459987;27;20018;-78
2024/04/09 10:18:57;;;;;;;2.75;0.80;;;;;;;16.34;50.52;100831.94;5449638;27;20024;-77
2024/04/09 10:21:31;;;;;;;3.03;0.82;;;;;;;16.09;49.18;100844.34;5453623;27;20006;-77
2024/04/09 10:24:07;;;;;;;2.97;0.77;;;;;;;16.10;48.89;100847.81;5470173;27;20034;-77
2024/04/09 10:26:41;;;;;;;2.97;0.80;;;;;;;15.94;48.56;100853.91;5452936;27;20117;-77
2024/04/09 10:29:17;;;;;;;2.47;1.15;;;;;;;15.87;50.04;100872.22;5457802;27;20461;-75
2024/04/09 10:31:49;;;;;;;5.25;0.90;;;;;;;15.88;50.38;100883.66;5476758;27;20527;-77
2024/04/09 10:34:26;;;;;;;2.90;0.80;;;;;;;15.95;49.88;100872.25;5470266;27;20028;-77
2024/04/09 10:36:58;;;;;;;3.90;0.93;;;;;;;16.04;51.27;100881.00;5461264;27;20290;-78
2024/04/09 10:39:32;;;;;;;3.13;0.70;;;;;;;16.01;49.78;100883.97;5455991;27;20047;-78
2024/04/09 10:42:04;;;;;;;4.07;1.13;;;;;;;15.91;49.09;100893.88;5470604;27;20030;-76
2024/04/09 10:44:36;;;;;;;3.58;0.70;;;;;;;15.70;48.96;100892.53;5449888;27;20376;-78
2024/04/09 10:47:09;;;;;;;3.15;0.90;;;;;;;15.70;48.17;100894.34;5454712;27;20007;-77
2024/04/09 10:49:41;;;;;;;;;;;;;;;16.43;48.05;100888.25;5466611;27;20039;-78
2024/04/09 10:52:13;;;;;;;3.65;0.85;;;;;;;15.80;49.42;100885.28;5459961;27;19939;-75
2024/04/09 10:54:46;;;;;;;2.45;0.85;;;;;;;15.88;47.69;100900.34;5450105;27;20062;-78
2024/04/09 10:57:17;;;;;;;2.65;0.82;;;;;;;15.72;46.59;100890.56;5453033;27;20743;-75
2024/04/09 10:59:49;;;;;;;4.88;0.85;;;;;;;15.77;47.87;100898.81;5456471;27;20025;-77
2024/04/09 11:02:21;;;;;;;2.30;0.70;;;;;;;15.77;48.60;100896.19;5461108;27;20020;-78
2024/04/09 11:04:55;;;;;;;4.68;0.88;;;;;;;15.73;48.45;100909.88;5455770;27;20041;-77
2024/04/09 11:07:27;;;;;;;2.95;0.80;;;;;;;15.61;48.77;100911.13;5459394;27;20023;-77
2024/04/09 11:09:59;;;;;;;5.20;1.00;;;;;;;15.68;49.55;100920.94;5469390;27;21117;-78
2024/04/09 11:12:31;;;;;;;3.55;0.90;;;;;;;15.62;49.32;100918.06;5454857;27;20035;-77
2024/04/09 11:15:04;;;;;;;4.78;1.10;;;;;;;15.47;48.24;100928.44;5452000;27;20035;-76
2024/04/09 11:17:37;;;;;;;3.72;0.98;;;;;;;15.45;49.09;100912.72;5469524;27;20815;-78
2024/04/09 11:20:14;;;;;;;3.40;0.90;;;;;;;15.38;49.75;100924.94;5456715;27;20489;-76
2024/04/09 11:22:49;;;;;;;3.38;1.20;;;;;;;15.29;50.25;100920.59;5453265;27;20038;-75
2024/04/09 11:25:22;;;;;;;4.65;1.02;;;;;;;15.35;50.15;100922.63;5460781;27;20034;-77
2024/04/09 11:27:54;;;;;;;4.25;1.20;;;;;;;15.30;50.01;100920.47;5449413;27;20046;-75
2024/04/09 11:30:34;;;;;;;2.53;1.20;;;;;;;15.50;50.68;100939.50;5456815;27;20382;-78
2024/04/09 11:33:05;;;;;;;3.88;0.98;;;;;;;15.47;49.97;100936.34;5453594;27;20038;-76
2024/04/09 11:35:37;;;;;;;3.50;0.80;;;;;;;15.40;50.87;100930.88;5465363;27;20014;-77
2024/04/09 11:38:10;;;;;;;4.60;1.20;;;;;;;15.39;49.76;100938.97;5459527;27;21121;-76
2024/04/09 11:40:42;;;;;;;5.63;1.10;;;;;;;15.44;50.38;100947.22;5467896;27;20034;-77
2024/04/09 11:43:14;;;;;;;3.10;0.88;;;;;;;15.38;50.86;100935.50;5462164;27;20031;-76
2024/04/09 11:45:46;;;;;;;2.95;1.17;;;;;;;15.42;50.70;100936.84;5457833;27;20110;-76
2024/04/09 11:48:19;;;;;;;3.67;0.90;;;;;;;15.41;50.88;100916.69;5455405;27;20003;-78